Aeroporto :
LOGIN :

Iscrizione | Disclaimer

   EN    FR    IT 

 










Sommario :    VFR   VFR Marginale   IFR   IFR Intensivo   IFR Molto Intensivo
Visibilità : 
Base nubi : 
>= 8 km
>= 3000ft
5 / 8 km
1000 / 3000 ft
1500m / 5 km
500 / 1000 ft
800 / 1500m
200 / 500 ft
< 800m
< 200 ft
Simboli :   Temporali  Nebbia  Neve Forte  Precipitazioni Forti  Vento > 20 kt
SIGMETs :   Varie  Temporali  Ghiacco  Turbolenza  Onda orograficha  Ceneri Vulcaniche






- Altitudine del aeroporto : 1043 ft
- Codice IATA : SLD


LZSL - Sliac

ULTIMO METAR :
  • 221600Z VRB02KT 9999 OVC025 10/05 Q1017

METARs OBSOLETI :
  • 221530Z 12005KT 080V160 9999 OVC025 10/05 Q1017
  • 221500Z 12005KT 080V160 9999 BKN029 10/06 Q1017
  • 221430Z 11004KT 060V160 9999 BKN033 09/06 Q1017
  • 221400Z 11006KT 040V150 9999 BKN031 09/06 Q1017
  • 221330Z 15005KT 080V230 9999 BKN027 10/06 Q1017

TAF TAF LZSL
Valido dal 22 a 15 ore il 23 a 00 ore UTC


221400Z 2215/2300 15010KT 9999 BKN028
BECMG 2217/2219 12005KT
TEMPO 2217/2300 -RA BKN012 OVC020



MetMap, La meteo Aeronautica in un colpo d'occhio ! - Copyright ORBIFLY Dicembre 2007 - Disclaimer

ORBIFLY MET'MAP TEAM :

Programmazione e sviluppo : Alexandra Zaïnal
Concezione e sviluppo : Baudouin d'Aumeries
Co-Programmazione e sviluppo : Marc-Olivier Méhu
Supporto tecnico e logistico : Manuel Goepfert
Aiuto per la traduzione : Arnaldo La Scala

Contatto : metmap@orbifly.com




FONTI E CREDITI :

   NOAA